createdAt,value
2019-03-18T00:00:40.258Z,4.6
2019-03-18T00:01:40.299Z,4.6
2019-03-18T00:02:40.343Z,4.6
2019-03-18T00:03:40.416Z,4.6
2019-03-18T00:04:40.514Z,4.6
2019-03-18T00:05:40.527Z,4.6
2019-03-18T00:06:40.598Z,4.6
2019-03-18T00:07:40.668Z,4.6
2019-03-18T00:08:40.698Z,4.6
2019-03-18T00:09:40.737Z,4.6
2019-03-18T00:10:40.784Z,4.6
2019-03-18T00:11:40.856Z,4.6
2019-03-18T00:12:40.924Z,4.6
2019-03-18T00:13:40.989Z,4.6
2019-03-18T00:14:41.072Z,4.6
2019-03-18T00:15:41.113Z,4.6
2019-03-18T00:16:41.178Z,4.6
2019-03-18T00:17:41.247Z,4.6
2019-03-18T00:18:41.326Z,4.6
2019-03-18T00:19:42.916Z,4.6
2019-03-18T00:20:41.412Z,4.6
2019-03-18T00:21:41.462Z,4.6
2019-03-18T00:22:41.516Z,4.6
2019-03-18T00:23:41.562Z,4.6
2019-03-18T00:24:41.647Z,4.7
2019-03-18T00:25:41.627Z,4.7
2019-03-18T00:26:41.677Z,4.7
2019-03-18T00:27:41.778Z,4.7
2019-03-18T00:28:41.766Z,4.7
2019-03-18T00:29:41.824Z,4.7
2019-03-18T00:30:41.904Z,4.7
2019-03-18T00:31:41.979Z,4.7
2019-03-18T00:32:42.011Z,4.7
2019-03-18T00:33:42.052Z,4.7
2019-03-18T00:34:42.122Z,4.7
2019-03-18T00:35:42.178Z,4.7
2019-03-18T00:36:42.216Z,4.7
2019-03-18T00:37:42.256Z,4.7
2019-03-18T00:38:42.307Z,4.7
2019-03-18T00:39:42.353Z,4.7
2019-03-18T00:40:42.409Z,4.7
2019-03-18T00:41:42.529Z,4.7
2019-03-18T00:42:42.555Z,4.7
2019-03-18T00:43:42.571Z,4.7
2019-03-18T00:44:42.704Z,4.7
2019-03-18T00:45:42.781Z,4.7
2019-03-18T00:46:42.714Z,4.7
2019-03-18T00:47:42.805Z,4.7
2019-03-18T00:48:42.864Z,4.7
2019-03-18T00:49:43.015Z,4.7
2019-03-18T00:50:42.936Z,4.7
2019-03-18T00:51:42.980Z,4.7
2019-03-18T00:52:43.040Z,4.7
2019-03-18T00:53:43.099Z,4.7
2019-03-18T00:54:43.205Z,4.8
2019-03-18T00:55:43.217Z,4.8
2019-03-18T00:56:43.282Z,4.8
2019-03-18T00:57:43.373Z,4.7
2019-03-18T00:58:43.463Z,4.7
2019-03-18T00:59:43.478Z,4.7
2019-03-18T01:00:43.530Z,4.8
2019-03-18T01:01:43.623Z,4.7
2019-03-18T01:02:43.614Z,4.7
2019-03-18T01:03:43.681Z,4.7
2019-03-18T01:04:43.756Z,4.7
2019-03-18T01:05:43.780Z,4.7
2019-03-18T01:06:43.811Z,4.7
2019-03-18T01:07:43.881Z,4.7
2019-03-18T01:08:43.931Z,4.7
2019-03-18T01:09:43.969Z,4.7
2019-03-18T01:10:44.015Z,4.7
2019-03-18T01:11:44.062Z,4.7
2019-03-18T01:12:44.101Z,4.7
2019-03-18T01:13:44.254Z,4.7
2019-03-18T01:14:44.207Z,4.7
2019-03-18T01:15:44.262Z,4.7
2019-03-18T01:16:44.324Z,4.7
2019-03-18T01:17:44.383Z,4.7
2019-03-18T01:18:44.430Z,4.7
2019-03-18T01:19:44.491Z,4.7
2019-03-18T01:20:44.550Z,4.7
2019-03-18T01:21:44.623Z,4.7
2019-03-18T01:22:44.661Z,4.6
2019-03-18T01:23:44.692Z,4.6
2019-03-18T01:24:44.733Z,4.6
2019-03-18T01:25:44.797Z,4.6
2019-03-18T01:26:44.853Z,4.5
2019-03-18T01:27:44.865Z,4.5
2019-03-18T01:28:44.983Z,4.5
2019-03-18T01:29:45.060Z,4.5
2019-03-18T01:30:45.062Z,4.5
2019-03-18T01:31:45.117Z,4.5
2019-03-18T01:32:45.169Z,4.5
2019-03-18T01:33:45.222Z,4.5
2019-03-18T01:34:45.321Z,4.5
2019-03-18T01:35:45.478Z,4.5
2019-03-18T01:36:45.423Z,4.5
2019-03-18T01:37:45.522Z,4.5
2019-03-18T01:38:45.563Z,4.5
2019-03-18T01:39:45.714Z,4.5
2019-03-18T01:40:45.680Z,4.5
2019-03-18T01:41:45.751Z,4.5
2019-03-18T01:42:45.771Z,4.5
2019-03-18T01:43:45.828Z,4.5
2019-03-18T01:44:45.884Z,4.5
2019-03-18T01:45:45.925Z,4.5
2019-03-18T01:46:45.975Z,4.5
2019-03-18T01:47:46.014Z,4.5
2019-03-18T01:48:46.090Z,4.5
2019-03-18T01:49:46.208Z,4.5
2019-03-18T01:50:46.191Z,4.5
2019-03-18T01:51:46.279Z,4.5
2019-03-18T01:52:46.358Z,4.5
2019-03-18T01:53:46.447Z,4.5
2019-03-18T01:54:46.460Z,4.5
2019-03-18T01:55:46.519Z,4.5
2019-03-18T01:56:46.597Z,4.5
2019-03-18T01:57:46.681Z,4.5
2019-03-18T01:58:46.721Z,4.5
2019-03-18T01:59:46.773Z,4.5
2019-03-18T02:00:46.852Z,4.5
2019-03-18T02:01:46.882Z,4.5
2019-03-18T02:02:47.000Z,4.5
2019-03-18T02:03:47.038Z,4.5
2019-03-18T02:04:47.130Z,4.5
2019-03-18T02:05:47.171Z,4.5
2019-03-18T02:06:47.196Z,4.5
2019-03-18T02:07:47.301Z,4.5
2019-03-18T02:08:47.318Z,4.5
2019-03-18T02:09:47.381Z,4.5
2019-03-18T02:10:47.425Z,4.5
2019-03-18T02:11:47.466Z,4.5
2019-03-18T02:12:47.494Z,4.6
2019-03-18T02:13:47.811Z,4.6
2019-03-18T02:14:47.623Z,4.6
2019-03-18T02:15:53.027Z,4.6
2019-03-18T02:16:47.761Z,4.6
2019-03-18T02:17:48.121Z,4.6
2019-03-18T02:18:47.832Z,4.6
2019-03-18T02:19:47.901Z,4.6
2019-03-18T02:20:48.001Z,4.6
2019-03-18T02:21:48.010Z,4.6
2019-03-18T02:22:48.683Z,4.6
2019-03-18T02:23:48.279Z,4.6
2019-03-18T02:24:48.197Z,4.6
2019-03-18T02:25:48.422Z,4.6
2019-03-18T02:26:48.249Z,4.5
2019-03-18T02:27:48.277Z,4.5
2019-03-18T02:28:48.327Z,4.5
2019-03-18T02:29:48.426Z,4.5
2019-03-18T02:30:48.461Z,4.5
2019-03-18T02:31:48.518Z,4.5
2019-03-18T02:32:48.680Z,4.4
2019-03-18T02:33:48.689Z,4.4
2019-03-18T02:34:48.824Z,4.4
2019-03-18T02:35:48.808Z,4.4
2019-03-18T02:36:48.963Z,4.4
2019-03-18T02:37:48.961Z,4.5
2019-03-18T02:38:49.073Z,4.5
2019-03-18T02:39:48.980Z,4.5
2019-03-18T02:40:49.107Z,4.5
2019-03-18T02:41:49.107Z,4.5
2019-03-18T02:42:49.239Z,4.5
2019-03-18T02:43:49.242Z,4.5
2019-03-18T02:44:49.240Z,4.5
2019-03-18T02:45:49.289Z,4.5
2019-03-18T02:46:49.394Z,4.6
2019-03-18T02:47:49.419Z,4.6
2019-03-18T02:48:49.466Z,4.6
2019-03-18T02:49:49.455Z,4.6
2019-03-18T02:50:49.497Z,4.6
2019-03-18T02:51:52.708Z,4.6
2019-03-18T02:52:49.588Z,4.6
2019-03-18T02:53:49.624Z,4.6
2019-03-18T02:54:49.704Z,4.6
2019-03-18T02:55:49.747Z,4.6
2019-03-18T02:56:49.809Z,4.6
2019-03-18T02:57:49.809Z,4.6
2019-03-18T02:58:49.958Z,4.6
2019-03-18T02:59:49.970Z,4.6
2019-03-18T03:00:50.003Z,4.6
2019-03-18T03:01:50.049Z,4.5
2019-03-18T03:02:50.121Z,4.6
2019-03-18T03:03:50.190Z,4.5
2019-03-18T03:04:50.230Z,4.5
2019-03-18T03:05:50.279Z,4.5
2019-03-18T03:06:50.380Z,4.5
2019-03-18T03:07:50.393Z,4.5
2019-03-18T03:08:50.450Z,4.5
2019-03-18T03:09:50.478Z,4.5
2019-03-18T03:10:50.547Z,4.5
2019-03-18T03:11:50.565Z,4.5
2019-03-18T03:12:50.639Z,4.5
2019-03-18T03:13:50.712Z,4.5
2019-03-18T03:14:50.762Z,4.5
2019-03-18T03:15:50.783Z,4.5
2019-03-18T03:16:50.829Z,4.5
2019-03-18T03:17:50.901Z,4.6
2019-03-18T03:18:50.942Z,4.6
2019-03-18T03:19:51.012Z,4.6
2019-03-18T03:20:51.080Z,4.6
2019-03-18T03:21:59.099Z,4.6
2019-03-18T03:22:51.200Z,4.6
2019-03-18T03:23:51.275Z,4.6
2019-03-18T03:24:51.327Z,4.6
2019-03-18T03:25:51.451Z,4.6
2019-03-18T03:26:51.419Z,4.6
2019-03-18T03:27:51.471Z,4.6
2019-03-18T03:28:51.530Z,4.6
2019-03-18T03:29:51.610Z,4.6
2019-03-18T03:30:51.689Z,4.6
2019-03-18T03:31:51.757Z,4.6
2019-03-18T03:32:51.806Z,4.6
2019-03-18T03:33:51.872Z,4.6
2019-03-18T03:34:51.963Z,4.6
2019-03-18T03:35:51.994Z,4.6
2019-03-18T03:36:52.051Z,4.6
2019-03-18T03:37:52.363Z,4.6
2019-03-18T03:38:52.327Z,4.6
2019-03-18T03:39:52.285Z,4.6
2019-03-18T03:40:52.344Z,4.6
2019-03-18T03:41:52.676Z,4.6
2019-03-18T03:42:52.342Z,4.6
2019-03-18T03:43:52.409Z,4.6
2019-03-18T03:44:52.461Z,4.6
2019-03-18T03:45:52.633Z,4.6
2019-03-18T03:46:52.561Z,4.6
2019-03-18T03:47:52.772Z,4.6
2019-03-18T03:48:52.669Z,4.6
2019-03-18T03:49:52.832Z,4.6
2019-03-18T03:50:52.799Z,4.6
2019-03-18T03:51:52.859Z,4.6
2019-03-18T03:52:52.948Z,4.6
2019-03-18T03:53:52.957Z,4.6
2019-03-18T03:54:53.055Z,4.7
2019-03-18T03:55:53.080Z,4.7
2019-03-18T03:56:53.142Z,4.7
2019-03-18T03:57:53.403Z,4.7
2019-03-18T03:58:53.478Z,4.7
2019-03-18T03:59:53.458Z,4.7
2019-03-18T04:00:53.585Z,4.7
2019-03-18T04:01:53.648Z,4.7
2019-03-18T04:02:53.454Z,4.7
2019-03-18T04:03:53.504Z,4.7
2019-03-18T04:04:53.574Z,4.7
2019-03-18T04:05:53.631Z,4.7
2019-03-18T04:06:53.753Z,4.7
2019-03-18T04:07:53.726Z,4.7
2019-03-18T04:08:53.768Z,4.7
2019-03-18T04:09:53.851Z,4.7
2019-03-18T04:10:53.878Z,4.7
2019-03-18T04:11:59.006Z,4.7
2019-03-18T04:12:53.959Z,4.7
2019-03-18T04:13:54.034Z,4.8
2019-03-18T04:14:54.087Z,4.8
2019-03-18T04:15:54.131Z,4.8
2019-03-18T04:17:01.493Z,4.8
2019-03-18T04:17:54.269Z,4.8
2019-03-18T04:18:54.317Z,4.8
2019-03-18T04:19:54.367Z,4.8
2019-03-18T04:20:54.599Z,4.8
2019-03-18T04:21:54.562Z,4.8
2019-03-18T04:22:54.518Z,4.8
2019-03-18T04:23:54.554Z,4.8
2019-03-18T04:24:54.630Z,4.8
2019-03-18T04:25:54.677Z,4.8
2019-03-18T04:26:54.735Z,4.8
2019-03-18T04:27:54.751Z,4.8
2019-03-18T04:28:54.882Z,4.8
2019-03-18T04:29:54.902Z,4.8
2019-03-18T04:30:54.938Z,4.8
2019-03-18T04:31:55.133Z,4.8
2019-03-18T04:32:55.096Z,4.8
2019-03-18T04:33:55.126Z,4.8
2019-03-18T04:34:55.185Z,4.8
2019-03-18T04:35:55.235Z,4.8
2019-03-18T04:36:55.295Z,4.8
2019-03-18T04:37:55.365Z,4.8
2019-03-18T04:38:55.387Z,4.8
2019-03-18T04:39:55.461Z,4.8
2019-03-18T04:40:55.512Z,4.8
2019-03-18T04:41:55.585Z,4.8
2019-03-18T04:42:55.571Z,4.8
2019-03-18T04:43:55.692Z,4.8
2019-03-18T04:44:55.707Z,4.8
2019-03-18T04:45:55.800Z,4.8
2019-03-18T04:46:55.920Z,4.8
2019-03-18T04:47:55.890Z,4.8
2019-03-18T04:48:55.968Z,4.8
2019-03-18T04:49:55.999Z,4.8
2019-03-18T04:50:56.039Z,4.8
2019-03-18T04:51:56.112Z,4.8
2019-03-18T04:52:56.157Z,4.8
2019-03-18T04:53:56.218Z,4.8
2019-03-18T04:54:56.257Z,4.8
2019-03-18T04:55:56.337Z,4.8
2019-03-18T04:56:56.378Z,4.8
2019-03-18T04:57:56.423Z,4.8
2019-03-18T04:58:56.599Z,4.8
2019-03-18T04:59:56.534Z,4.8
2019-03-18T05:00:56.586Z,4.8
2019-03-18T05:01:59.109Z,4.8
2019-03-18T05:02:56.670Z,4.8
2019-03-18T05:03:56.723Z,4.8
2019-03-18T05:04:56.791Z,4.8
2019-03-18T05:05:56.903Z,4.8
2019-03-18T05:06:56.957Z,4.8
2019-03-18T05:07:56.968Z,4.8
2019-03-18T05:08:57.024Z,4.8
2019-03-18T05:09:57.045Z,4.8
2019-03-18T05:10:57.089Z,4.8
2019-03-18T05:11:59.050Z,4.7
2019-03-18T05:12:57.233Z,4.7
2019-03-18T05:13:57.380Z,4.7
2019-03-18T05:14:57.317Z,4.8
2019-03-18T05:15:57.342Z,4.8
2019-03-18T05:16:57.427Z,4.8
2019-03-18T05:17:57.461Z,4.8
2019-03-18T05:18:57.510Z,4.7
2019-03-18T05:19:57.558Z,4.7
2019-03-18T05:20:57.846Z,4.7
2019-03-18T05:21:57.687Z,4.7
2019-03-18T05:22:57.714Z,4.7
2019-03-18T05:23:57.750Z,4.7
2019-03-18T05:24:57.820Z,4.7
2019-03-18T05:25:57.878Z,4.7
2019-03-18T05:26:57.931Z,4.7
2019-03-18T05:27:57.978Z,4.7
2019-03-18T05:28:58.039Z,4.6
2019-03-18T05:29:58.093Z,4.6
2019-03-18T05:30:58.133Z,4.6
2019-03-18T05:31:58.187Z,4.6
2019-03-18T05:32:58.290Z,4.6
2019-03-18T05:33:58.296Z,4.6
2019-03-18T05:34:58.333Z,4.6
2019-03-18T05:35:58.353Z,4.6
2019-03-18T05:36:58.467Z,4.6
2019-03-18T05:37:58.615Z,4.6
2019-03-18T05:38:58.618Z,4.6
2019-03-18T05:39:58.737Z,4.6
2019-03-18T05:40:58.748Z,4.6
2019-03-18T05:41:58.923Z,4.6
2019-03-18T05:42:58.977Z,4.6
2019-03-18T05:43:59.048Z,4.6
2019-03-18T05:44:58.941Z,4.6
2019-03-18T05:45:59.035Z,4.6
2019-03-18T05:46:59.077Z,4.6
2019-03-18T05:47:59.126Z,4.6
2019-03-18T05:48:59.182Z,4.6
2019-03-18T05:49:59.232Z,4.6
2019-03-18T05:50:59.277Z,4.6
2019-03-18T05:51:59.370Z,4.6
2019-03-18T05:52:59.394Z,4.6
2019-03-18T05:53:59.447Z,4.6
2019-03-18T05:54:59.526Z,4.6
2019-03-18T05:55:59.598Z,4.6
2019-03-18T05:56:59.635Z,4.6
2019-03-18T05:57:59.703Z,4.6
2019-03-18T05:59:32.392Z,4.6
2019-03-18T05:59:59.818Z,4.6
2019-03-18T06:00:59.876Z,4.6
2019-03-18T06:01:59.893Z,4.6
2019-03-18T06:02:59.943Z,4.6
2019-03-18T06:04:00.012Z,4.6
2019-03-18T06:05:00.052Z,4.6
2019-03-18T06:06:00.092Z,4.7
2019-03-18T06:07:00.551Z,4.7
2019-03-18T06:08:00.589Z,4.7
2019-03-18T06:09:00.461Z,4.7
2019-03-18T06:10:00.494Z,4.7
2019-03-18T06:11:00.479Z,4.7
2019-03-18T06:12:00.682Z,4.8
2019-03-18T06:13:00.492Z,4.8
2019-03-18T06:14:00.553Z,4.8
2019-03-18T06:15:00.567Z,4.8
2019-03-18T06:16:00.621Z,4.8
2019-03-18T06:17:00.695Z,4.8
2019-03-18T06:18:00.709Z,4.8
2019-03-18T06:19:00.776Z,4.8
2019-03-18T06:20:00.813Z,4.8
2019-03-18T06:21:00.886Z,4.8
2019-03-18T06:22:00.973Z,4.8
2019-03-18T06:23:00.958Z,4.8
2019-03-18T06:24:01.054Z,4.8
2019-03-18T06:25:01.108Z,4.8
2019-03-18T06:26:01.163Z,4.9
2019-03-18T06:27:01.165Z,4.9
2019-03-18T06:28:01.235Z,4.9
2019-03-18T06:29:46.540Z,4.9
2019-03-18T06:30:01.340Z,4.9
2019-03-18T06:31:01.406Z,4.9
2019-03-18T06:32:01.446Z,4.9
2019-03-18T06:33:01.468Z,4.9
2019-03-18T06:34:01.558Z,4.9
2019-03-18T06:35:01.546Z,4.9
2019-03-18T06:36:01.654Z,4.9
2019-03-18T06:37:01.704Z,4.9
2019-03-18T06:38:01.743Z,4.9
2019-03-18T06:39:01.845Z,4.9
2019-03-18T06:40:01.860Z,4.9
2019-03-18T06:41:01.952Z,4.9
2019-03-18T06:42:01.993Z,5
2019-03-18T06:43:02.035Z,5
2019-03-18T06:44:02.123Z,5
2019-03-18T06:45:02.130Z,5
2019-03-18T06:46:02.205Z,5
2019-03-18T06:47:02.228Z,5
2019-03-18T06:48:05.030Z,5
2019-03-18T06:49:02.335Z,5
2019-03-18T06:50:02.401Z,5
2019-03-18T06:51:02.450Z,5
2019-03-18T06:52:02.593Z,5
2019-03-18T06:53:02.604Z,5
2019-03-18T06:54:02.661Z,5
2019-03-18T06:55:02.674Z,5
2019-03-18T06:56:02.756Z,5
2019-03-18T06:57:02.875Z,4.9
2019-03-18T06:58:02.894Z,5
2019-03-18T06:59:02.948Z,4.9
2019-03-18T07:00:02.992Z,4.9
2019-03-18T07:01:03.047Z,4.9
2019-03-18T07:02:03.174Z,4.9
2019-03-18T07:03:03.402Z,4.9
2019-03-18T07:04:03.193Z,4.9
2019-03-18T07:05:03.332Z,4.9
2019-03-18T07:06:03.290Z,4.9
2019-03-18T07:07:03.409Z,4.9
2019-03-18T07:08:03.432Z,4.9
2019-03-18T07:09:03.503Z,4.9
2019-03-18T07:10:03.515Z,4.9
2019-03-18T07:11:03.543Z,4.9
2019-03-18T07:12:03.642Z,4.9
2019-03-18T07:13:03.934Z,4.9
2019-03-18T07:14:03.670Z,4.9
2019-03-18T07:15:03.722Z,4.9
2019-03-18T07:16:04.079Z,4.9
2019-03-18T07:17:03.859Z,4.9
2019-03-18T07:18:17.029Z,4.9
2019-03-18T07:19:03.977Z,4.9
2019-03-18T07:20:05.010Z,4.9
2019-03-18T07:21:04.342Z,4.9
2019-03-18T07:22:04.109Z,4.9
2019-03-18T07:23:04.387Z,4.9
2019-03-18T07:24:04.594Z,4.9
2019-03-18T07:25:04.333Z,4.9
2019-03-18T07:26:04.371Z,4.9
2019-03-18T07:27:04.382Z,4.9
2019-03-18T07:28:05.290Z,4.9
2019-03-18T07:29:05.796Z,4.9
2019-03-18T07:30:04.568Z,4.9
2019-03-18T07:31:04.634Z,4.9
2019-03-18T07:32:04.907Z,4.9
2019-03-18T07:33:04.859Z,5
2019-03-18T07:34:05.008Z,5
2019-03-18T07:35:05.160Z,5
2019-03-18T07:36:04.951Z,5
2019-03-18T07:37:06.138Z,5
2019-03-18T07:38:04.991Z,5
2019-03-18T07:39:05.035Z,5
2019-03-18T07:40:05.093Z,5
2019-03-18T07:41:05.200Z,5
2019-03-18T07:42:05.206Z,4.9
2019-03-18T07:43:05.955Z,4.9
2019-03-18T07:44:05.331Z,4.9
2019-03-18T07:45:07.881Z,4.9
2019-03-18T07:46:05.571Z,4.9
2019-03-18T07:47:05.674Z,4.9
2019-03-18T07:48:06.547Z,4.9
2019-03-18T07:49:07.289Z,4.9
2019-03-18T07:50:05.612Z,4.9
2019-03-18T07:51:06.089Z,5
2019-03-18T07:52:06.094Z,5
2019-03-18T07:53:06.607Z,5
2019-03-18T07:54:06.233Z,5
2019-03-18T07:55:06.903Z,5
2019-03-18T07:56:06.349Z,5.1
2019-03-18T07:57:06.787Z,5.1
2019-03-18T07:58:06.106Z,5.1
2019-03-18T07:59:07.542Z,5.1
2019-03-18T08:00:06.222Z,5.2
2019-03-18T08:01:08.316Z,5.3
2019-03-18T08:02:06.383Z,5.3
2019-03-18T08:03:06.589Z,5.3
2019-03-18T08:04:06.426Z,5.3
2019-03-18T08:05:09.042Z,5.3
2019-03-18T08:06:06.535Z,5.3
2019-03-18T08:07:10.120Z,5.3
2019-03-18T08:08:06.611Z,5.3
2019-03-18T08:09:06.698Z,5.2
2019-03-18T08:10:06.778Z,5.2
2019-03-18T08:11:09.006Z,5.2
2019-03-18T08:12:06.843Z,5.2
2019-03-18T08:13:07.822Z,5.3
2019-03-18T08:14:06.998Z,5.3
2019-03-18T08:15:08.097Z,5.3
2019-03-18T08:16:07.735Z,5.3
2019-03-18T08:17:10.666Z,5.1
2019-03-18T08:18:07.250Z,5.1
2019-03-18T08:19:07.789Z,5.1
2019-03-18T08:20:07.441Z,5.1
2019-03-18T08:21:07.891Z,5.1
2019-03-18T08:22:07.716Z,5.1
2019-03-18T08:23:08.181Z,5.2
2019-03-18T08:24:07.948Z,5.1
2019-03-18T08:25:08.665Z,5.1
2019-03-18T08:26:08.280Z,5.1
2019-03-18T08:27:07.717Z,5.1
2019-03-18T08:28:08.138Z,5.2
2019-03-18T08:29:09.132Z,5.3
2019-03-18T08:30:07.895Z,5.3
2019-03-18T08:31:09.262Z,5.3
2019-03-18T08:32:11.589Z,5.3
2019-03-18T08:33:09.609Z,5.3
2019-03-18T08:34:09.582Z,5.4
2019-03-18T08:35:08.367Z,5.4
2019-03-18T08:36:08.411Z,5.5
2019-03-18T08:37:09.947Z,5.5
2019-03-18T08:38:10.415Z,5.4
2019-03-18T08:39:10.399Z,5.4
2019-03-18T08:40:10.425Z,5.3
2019-03-18T08:41:10.544Z,5.3
2019-03-18T08:42:08.400Z,5.3
2019-03-18T08:43:10.898Z,5.2
2019-03-18T08:44:10.999Z,5.2
2019-03-18T08:45:08.561Z,5.2
2019-03-18T08:46:08.628Z,5.2
2019-03-18T08:47:11.348Z,5.2
2019-03-18T08:48:11.712Z,5.2
2019-03-18T08:49:10.688Z,5.1
2019-03-18T08:50:10.764Z,5.1
2019-03-18T08:51:08.867Z,5.2
2019-03-18T08:52:08.893Z,5.3
2019-03-18T08:53:08.948Z,5.3
2019-03-18T08:54:09.009Z,5.3
2019-03-18T08:55:09.072Z,5.3
2019-03-18T08:56:09.121Z,5.3
2019-03-18T08:57:09.191Z,5.3
2019-03-18T08:58:09.342Z,5.2
2019-03-18T08:59:15.680Z,5.2
2019-03-18T09:00:09.362Z,5.3
2019-03-18T09:01:09.397Z,5.3
2019-03-18T09:02:09.517Z,5.3
2019-03-18T09:03:09.488Z,5.3
2019-03-18T09:04:09.582Z,5.3
2019-03-18T09:05:09.627Z,5.3
2019-03-18T09:06:09.687Z,5.3
2019-03-18T09:07:09.747Z,5.3
2019-03-18T09:08:09.807Z,5.4
2019-03-18T09:09:09.876Z,5.4
2019-03-18T09:10:09.892Z,5.6
2019-03-18T09:11:09.943Z,5.7
2019-03-18T09:12:09.978Z,5.7
2019-03-18T09:13:10.044Z,5.7
2019-03-18T09:14:10.087Z,5.6
2019-03-18T09:15:10.183Z,5.6
2019-03-18T09:16:10.460Z,5.6
2019-03-18T09:17:10.609Z,5.6
2019-03-18T09:18:10.398Z,5.6
2019-03-18T09:19:10.450Z,5.5
2019-03-18T09:20:10.825Z,5.5
2019-03-18T09:21:10.857Z,5.5
2019-03-18T09:22:10.912Z,5.5
2019-03-18T09:23:10.792Z,5.5
2019-03-18T09:24:10.680Z,5.5
2019-03-18T09:25:10.707Z,5.5
2019-03-18T09:26:10.763Z,5.5
2019-03-18T09:27:10.788Z,5.5
2019-03-18T09:28:10.875Z,5.4
2019-03-18T09:29:10.892Z,5.4
2019-03-18T09:30:10.971Z,5.5
2019-03-18T09:31:11.120Z,5.5
2019-03-18T09:32:11.107Z,5.5
2019-03-18T09:33:11.189Z,5.5
2019-03-18T09:34:11.201Z,5.5
2019-03-18T09:35:11.261Z,5.5
2019-03-18T09:36:11.328Z,5.5
2019-03-18T09:37:11.389Z,5.5
2019-03-18T09:38:11.423Z,5.6
2019-03-18T09:39:11.495Z,5.6
2019-03-18T09:40:11.556Z,5.7
2019-03-18T09:41:11.602Z,5.7
2019-03-18T09:42:11.667Z,5.8
2019-03-18T09:43:11.777Z,5.8
2019-03-18T09:44:11.809Z,5.8
2019-03-18T09:45:11.835Z,5.8
2019-03-18T09:46:11.890Z,5.8
2019-03-18T09:47:11.962Z,5.7
2019-03-18T09:48:12.023Z,5.7
2019-03-18T09:49:20.888Z,5.6
2019-03-18T09:50:12.112Z,5.6
2019-03-18T09:51:12.131Z,5.6
2019-03-18T09:52:12.207Z,5.5
2019-03-18T09:53:12.254Z,5.5
2019-03-18T09:54:12.329Z,5.4
2019-03-18T09:55:12.464Z,5.4
2019-03-18T09:56:12.464Z,5.4
2019-03-18T09:57:24.970Z,5.3
2019-03-18T09:58:12.558Z,5.3
2019-03-18T09:59:12.593Z,5.3
2019-03-18T10:00:12.621Z,5.3
2019-03-18T10:01:12.692Z,5.4
2019-03-18T10:02:12.704Z,5.4
2019-03-18T10:03:12.776Z,5.4
2019-03-18T10:04:12.811Z,5.4
2019-03-18T10:05:12.865Z,5.4
2019-03-18T10:06:12.939Z,5.4
2019-03-18T10:07:12.989Z,5.5
2019-03-18T10:08:13.033Z,5.4
2019-03-18T10:09:13.101Z,5.4
2019-03-18T10:10:13.155Z,5.4
2019-03-18T10:11:13.244Z,5.4
2019-03-18T10:12:13.336Z,5.4
2019-03-18T10:13:13.412Z,5.3
2019-03-18T10:14:13.453Z,5.3
2019-03-18T10:15:13.524Z,5.3
2019-03-18T10:16:13.571Z,5.3
2019-03-18T10:17:13.637Z,5.3
2019-03-18T10:18:13.650Z,5.3
2019-03-18T10:19:13.715Z,5.3
2019-03-18T10:20:13.763Z,5.3
2019-03-18T10:21:13.815Z,5.1
2019-03-18T10:22:13.850Z,5.1
2019-03-18T10:23:13.900Z,5.1
2019-03-18T10:24:14.036Z,5.1
2019-03-18T10:25:14.079Z,5
2019-03-18T10:26:14.071Z,5
2019-03-18T10:27:14.109Z,4.9
2019-03-18T10:28:16.346Z,4.8
2019-03-18T10:29:14.233Z,4.8
2019-03-18T10:30:14.274Z,4.8
2019-03-18T10:31:14.356Z,4.8
2019-03-18T10:32:14.407Z,4.8
2019-03-18T10:33:14.443Z,4.8
2019-03-18T10:34:14.552Z,4.8
2019-03-18T10:35:14.567Z,4.8
2019-03-18T10:36:14.617Z,4.9
2019-03-18T10:37:14.887Z,4.9
2019-03-18T10:38:15.110Z,4.9
2019-03-18T10:39:14.778Z,4.9
2019-03-18T10:40:14.825Z,5
2019-03-18T10:41:14.942Z,5
2019-03-18T10:42:14.983Z,5.1
2019-03-18T10:43:15.015Z,5.2
2019-03-18T10:44:15.083Z,5.3
2019-03-18T10:45:15.141Z,5.4
2019-03-18T10:46:15.238Z,5.4
2019-03-18T10:47:15.753Z,5.5
2019-03-18T10:48:15.337Z,5.6
2019-03-18T10:49:15.373Z,5.8
2019-03-18T10:50:15.419Z,5.9
2019-03-18T10:51:15.515Z,5.9
2019-03-18T10:52:15.595Z,5.9
2019-03-18T10:53:15.717Z,5.9
2019-03-18T10:54:15.729Z,5.8
2019-03-18T10:55:15.780Z,5.8
2019-03-18T10:56:16.087Z,5.8
2019-03-18T10:57:16.074Z,5.8
2019-03-18T10:58:18.067Z,5.7
2019-03-18T10:59:15.999Z,5.7
2019-03-18T11:00:16.043Z,5.7
2019-03-18T11:01:16.128Z,5.8
2019-03-18T11:02:16.167Z,5.8
2019-03-18T11:03:16.236Z,5.9
2019-03-18T11:04:16.439Z,5.9
2019-03-18T11:05:16.387Z,6
2019-03-18T11:06:16.447Z,6
2019-03-18T11:07:16.455Z,6.1
2019-03-18T11:08:16.540Z,6.1
2019-03-18T11:09:16.603Z,6.2
2019-03-18T11:10:16.664Z,6.2
2019-03-18T11:11:16.726Z,6.3
2019-03-18T11:12:16.731Z,6.2
2019-03-18T11:13:16.794Z,6.3
2019-03-18T11:14:16.835Z,6.3
2019-03-18T11:15:16.910Z,6.3
2019-03-18T11:16:16.986Z,6.2
2019-03-18T11:17:17.013Z,6.1
2019-03-18T11:18:17.108Z,6.2
2019-03-18T11:19:17.117Z,6.2
2019-03-18T11:20:17.214Z,6.2
2019-03-18T11:21:17.255Z,6.2
2019-03-18T11:22:17.287Z,6.3
2019-03-18T11:23:17.335Z,6.4
2019-03-18T11:24:17.401Z,6.6
2019-03-18T11:25:17.430Z,6.9
2019-03-18T11:26:17.531Z,7.1
2019-03-18T11:27:17.533Z,7.3
2019-03-18T11:28:17.563Z,7.4
2019-03-18T11:29:17.634Z,7.5
2019-03-18T11:30:17.723Z,7.6
2019-03-18T11:31:17.742Z,7.7
2019-03-18T11:32:17.838Z,7.7
2019-03-18T11:33:17.905Z,7.8
2019-03-18T11:34:17.934Z,7.8
2019-03-18T11:35:18.036Z,7.8
2019-03-18T11:36:18.100Z,7.7
2019-03-18T11:37:18.153Z,7.5
2019-03-18T11:38:18.186Z,7.4
2019-03-18T11:39:18.247Z,7.5
2019-03-18T11:40:18.281Z,7.5
2019-03-18T11:41:18.336Z,7.5
2019-03-18T11:42:18.412Z,7.4
2019-03-18T11:43:18.451Z,7.2
2019-03-18T11:44:18.581Z,7.2
2019-03-18T11:45:18.579Z,7.1
2019-03-18T11:46:18.632Z,7.1
2019-03-18T11:47:18.677Z,7.2
2019-03-18T11:48:18.765Z,7.1
2019-03-18T11:49:18.852Z,7
2019-03-18T11:50:18.899Z,7
2019-03-18T11:51:18.920Z,6.9
2019-03-18T11:52:18.970Z,6.8
2019-03-18T11:53:19.036Z,6.8
2019-03-18T11:54:19.121Z,6.8
2019-03-18T11:55:19.148Z,6.7
2019-03-18T11:56:19.204Z,6.7
2019-03-18T11:57:19.264Z,6.7
2019-03-18T11:58:19.354Z,6.7
2019-03-18T11:59:20.924Z,6.7
2019-03-18T12:00:19.431Z,6.7
2019-03-18T12:01:19.481Z,6.8
2019-03-18T12:02:27.394Z,6.8
2019-03-18T12:03:19.618Z,7
2019-03-18T12:04:19.599Z,7.1
2019-03-18T12:05:19.711Z,7.1
2019-03-18T12:06:19.704Z,7
2019-03-18T12:07:19.756Z,7
2019-03-18T12:08:19.834Z,6.9
2019-03-18T12:09:19.875Z,6.9
2019-03-18T12:10:19.923Z,6.9
2019-03-18T12:11:19.956Z,7
2019-03-18T12:12:20.019Z,7
2019-03-18T12:13:20.049Z,7.2
2019-03-18T12:14:20.084Z,7.4
2019-03-18T12:15:21.481Z,7.5
2019-03-18T12:16:20.206Z,7.7
2019-03-18T12:17:20.280Z,7.9
2019-03-18T12:18:20.294Z,8
2019-03-18T12:19:23.019Z,8.2
2019-03-18T12:20:24.592Z,8.3
2019-03-18T12:21:20.567Z,8.3
2019-03-18T12:22:20.556Z,8.3
2019-03-18T12:23:20.606Z,8.3
2019-03-18T12:24:20.670Z,8.3
2019-03-18T12:25:20.698Z,8.2
2019-03-18T12:26:20.868Z,8.1
2019-03-18T12:27:21.256Z,8
2019-03-18T12:28:21.056Z,7.8
2019-03-18T12:29:20.881Z,7.7
2019-03-18T12:30:21.030Z,7.6
2019-03-18T12:31:21.037Z,7.5
2019-03-18T12:32:21.261Z,7.4
2019-03-18T12:33:21.349Z,7.3
2019-03-18T12:34:21.381Z,7.2
2019-03-18T12:35:21.522Z,7.1
2019-03-18T12:36:21.570Z,7.1
2019-03-18T12:37:21.417Z,7
2019-03-18T12:38:21.428Z,6.9
2019-03-18T12:39:24.440Z,6.8
2019-03-18T12:40:21.549Z,6.7
2019-03-18T12:41:21.546Z,6.6
2019-03-18T12:42:21.581Z,6.6
2019-03-18T12:43:21.651Z,6.6
2019-03-18T12:44:21.675Z,6.6
2019-03-18T12:45:21.753Z,6.6
2019-03-18T12:46:21.784Z,6.5
2019-03-18T12:47:21.825Z,6.5
2019-03-18T12:48:21.897Z,6.4
2019-03-18T12:49:21.923Z,6.4
2019-03-18T12:50:36.745Z,6.4
2019-03-18T12:51:22.066Z,6.3
2019-03-18T12:52:22.135Z,6.3
2019-03-18T12:53:22.173Z,6.3
2019-03-18T12:54:22.257Z,6.3
2019-03-18T12:55:22.264Z,6.3
2019-03-18T12:56:22.293Z,6.3
2019-03-18T12:57:22.377Z,6.4
2019-03-18T12:58:22.415Z,6.4
2019-03-18T12:59:22.509Z,6.4
2019-03-18T13:00:22.555Z,6.4
2019-03-18T13:01:22.585Z,6.4
2019-03-18T13:02:22.687Z,6.4
2019-03-18T13:03:22.747Z,6.4
2019-03-18T13:04:22.984Z,6.5
2019-03-18T13:05:22.957Z,6.5
2019-03-18T13:06:22.896Z,6.5
2019-03-18T13:07:22.935Z,6.5
2019-03-18T13:08:23.037Z,6.5
2019-03-18T13:09:23.057Z,6.4
2019-03-18T13:10:23.094Z,6.4
2019-03-18T13:11:23.202Z,6.5
2019-03-18T13:12:23.226Z,6.5
2019-03-18T13:13:23.296Z,6.5
2019-03-18T13:14:23.385Z,6.6
2019-03-18T13:15:23.430Z,6.9
2019-03-18T13:16:23.494Z,7
2019-03-18T13:17:23.571Z,7
2019-03-18T13:18:23.646Z,6.9
2019-03-18T13:19:23.707Z,6.8
2019-03-18T13:20:23.773Z,6.7
2019-03-18T13:21:23.827Z,6.7
2019-03-18T13:22:23.903Z,6.7
2019-03-18T13:23:23.985Z,6.7
2019-03-18T13:24:23.995Z,6.6
2019-03-18T13:25:24.062Z,6.6
2019-03-18T13:26:24.171Z,6.6
2019-03-18T13:27:24.609Z,6.6
2019-03-18T13:28:24.299Z,6.6
2019-03-18T13:29:24.421Z,6.6
2019-03-18T13:30:24.404Z,6.6
2019-03-18T13:31:24.419Z,6.5
2019-03-18T13:32:24.479Z,6.5
2019-03-18T13:33:24.528Z,6.5
2019-03-18T13:34:24.565Z,6.5
2019-03-18T13:35:24.694Z,6.4
2019-03-18T13:36:25.546Z,6.4
2019-03-18T13:37:25.135Z,6.4
2019-03-18T13:38:24.828Z,6.4
2019-03-18T13:39:24.857Z,6.4
2019-03-18T13:40:24.930Z,6.4
2019-03-18T13:41:24.978Z,6.3
2019-03-18T13:42:24.998Z,6.3
2019-03-18T13:43:27.906Z,6.3
2019-03-18T13:44:25.114Z,6.3
2019-03-18T13:45:25.205Z,6.3
2019-03-18T13:46:25.285Z,6.3
2019-03-18T13:47:25.276Z,6.3
2019-03-18T13:48:25.328Z,6.2
2019-03-18T13:49:25.427Z,6.2
2019-03-18T13:50:25.443Z,6.2